createdAt,value
2019-05-23T00:03:15.517Z,3.40
2019-05-23T00:08:39.868Z,2.77
2019-05-23T00:13:49.943Z,3.20
2019-05-23T00:18:57.298Z,3.23
2019-05-23T00:24:02.936Z,3.33
2019-05-23T00:29:10.985Z,3.30
2019-05-23T00:34:18.200Z,2.97
2019-05-23T00:39:24.213Z,2.70
2019-05-23T00:44:30.522Z,2.90
2019-05-23T00:49:36.016Z,2.50
2019-05-23T00:54:42.341Z,2.53
2019-05-23T00:59:49.119Z,2.73
2019-05-23T01:04:55.968Z,2.80
2019-05-23T01:10:01.548Z,2.73
2019-05-23T01:15:08.507Z,2.93
2019-05-23T01:20:17.897Z,2.77
2019-05-23T01:25:24.647Z,2.47
2019-05-23T01:30:36.245Z,2.37
2019-05-23T01:35:42.750Z,2.33
2019-05-23T01:40:49.388Z,2.40
2019-05-23T01:45:54.812Z,2.37
2019-05-23T01:51:01.334Z,2.33
2019-05-23T01:56:08.967Z,2.33
2019-05-23T02:01:16.094Z,2.23
2019-05-23T02:06:21.940Z,1.90
2019-05-23T02:11:27.534Z,1.20
2019-05-23T02:16:33.273Z,1.20
2019-05-23T02:21:38.837Z,1.40
2019-05-23T02:26:44.453Z,1.50
2019-05-23T02:31:51.054Z,1.77
2019-05-23T02:36:58.347Z,1.33
2019-05-23T02:42:22.624Z,1.10
2019-05-23T02:47:38.906Z,1.23
2019-05-23T02:52:49.332Z,1.40
2019-05-23T02:57:56.921Z,1.50
2019-05-23T03:03:06.991Z,1.30
2019-05-23T03:08:14.517Z,1.23
2019-05-23T03:13:21.848Z,1.50
2019-05-23T03:18:34.060Z,1.30
2019-05-23T03:23:37.289Z,1.30
2019-05-23T03:28:42.742Z,0.93
2019-05-23T03:33:49.846Z,1.50
2019-05-23T03:38:55.522Z,1.30
2019-05-23T03:44:03.184Z,1.53
2019-05-23T03:49:11.267Z,1.07
2019-05-23T03:54:18.830Z,1.30
2019-05-23T03:59:27.293Z,1.80
2019-05-23T04:04:33.774Z,1.47
2019-05-23T04:09:39.303Z,1.67
2019-05-23T04:14:47.300Z,1.80
2019-05-23T04:19:53.245Z,2.17
2019-05-23T04:25:01.800Z,1.60
2019-05-23T04:30:07.852Z,1.77
2019-05-23T04:35:13.546Z,1.73
2019-05-23T04:40:19.685Z,1.67
2019-05-23T04:45:25.764Z,1.90
2019-05-23T04:50:32.097Z,1.83
2019-05-23T04:55:39.460Z,1.80
2019-05-23T05:00:44.914Z,1.60
2019-05-23T05:05:51.551Z,1.70
2019-05-23T05:10:57.929Z,1.60
2019-05-23T05:16:03.716Z,1.80
2019-05-23T05:21:09.605Z,1.50
2019-05-23T05:26:22.886Z,1.60
2019-05-23T05:31:28.511Z,1.63
2019-05-23T05:36:34.514Z,1.60
2019-05-23T05:41:41.325Z,1.60
2019-05-23T05:46:48.690Z,1.60
2019-05-23T05:51:54.444Z,1.70
2019-05-23T05:57:00.742Z,1.40
2019-05-23T06:02:09.365Z,1.30
2019-05-23T06:07:34.067Z,1.23
2019-05-23T06:12:40.573Z,1.20
2019-05-23T06:17:47.523Z,0.93
2019-05-23T06:22:53.491Z,1.10
2019-05-23T06:28:00.106Z,1.10
2019-05-23T06:33:21.750Z,1.00
2019-05-23T06:38:13.224Z,1.10
2019-05-23T06:43:20.325Z,1.10
2019-05-23T06:48:26.847Z,0.90
2019-05-23T06:53:32.497Z,1.10
2019-05-23T06:58:39.587Z,0.87
2019-05-23T07:03:45.177Z,1.20
2019-05-23T07:08:50.869Z,0.90
2019-05-23T07:13:56.436Z,1.10
2019-05-23T07:19:01.957Z,1.00
2019-05-23T07:24:07.852Z,1.00
2019-05-23T07:29:13.347Z,1.30
2019-05-23T07:34:21.177Z,1.17
2019-05-23T07:39:27.042Z,1.07
2019-05-23T07:44:47.374Z,1.20
2019-05-23T07:49:40.401Z,1.20
2019-05-23T07:54:54.443Z,1.20
2019-05-23T08:00:00.614Z,1.00
2019-05-23T08:05:08.934Z,1.00
2019-05-23T08:10:30.928Z,1.20
2019-05-23T08:15:21.728Z,1.20
2019-05-23T08:20:28.061Z,1.33
2019-05-23T08:25:34.164Z,1.20
2019-05-23T08:30:39.954Z,1.37
2019-05-23T08:35:46.182Z,1.10
2019-05-23T08:40:53.536Z,1.30
2019-05-23T08:45:59.197Z,0.97
2019-05-23T08:51:05.157Z,1.07
2019-05-23T08:56:18.726Z,0.90
2019-05-23T09:01:19.084Z,1.00
2019-05-23T09:06:26.620Z,0.80
2019-05-23T09:11:33.015Z,1.03
2019-05-23T09:16:39.529Z,1.13
2019-05-23T09:21:46.816Z,0.97
2019-05-23T09:26:53.320Z,0.87
2019-05-23T09:31:58.672Z,0.90
2019-05-23T09:37:05.170Z,1.00
2019-05-23T09:42:12.132Z,1.00
2019-05-23T09:47:18.693Z,0.80
2019-05-23T09:52:25.057Z,1.00
2019-05-23T09:57:31.047Z,0.80
2019-05-23T10:02:36.721Z,0.60
2019-05-23T10:07:42.587Z,0.67
2019-05-23T10:12:48.103Z,1.00
2019-05-23T10:17:53.678Z,0.87
2019-05-23T10:22:59.288Z,0.90
2019-05-23T10:28:06.281Z,1.23
2019-05-23T10:33:13.306Z,0.70
2019-05-23T10:38:19.427Z,1.07
2019-05-23T10:43:24.920Z,0.80
2019-05-23T10:48:31.066Z,0.90
2019-05-23T10:53:36.616Z,0.93
2019-05-23T10:58:42.227Z,1.03
2019-05-23T11:03:47.662Z,0.80
2019-05-23T11:08:53.472Z,0.93
2019-05-23T11:13:59.591Z,0.70
2019-05-23T11:19:06.577Z,0.77
2019-05-23T11:24:12.248Z,0.80
2019-05-23T11:29:18.024Z,0.97
2019-05-23T11:34:23.930Z,0.90
2019-05-23T11:39:29.581Z,0.80
2019-05-23T11:44:35.044Z,1.00
2019-05-23T11:49:41.511Z,1.00
2019-05-23T11:54:49.279Z,0.70
2019-05-23T11:59:54.837Z,0.90
2019-05-23T12:05:03.281Z,0.93
2019-05-23T12:10:11.109Z,0.90
2019-05-23T12:15:22.053Z,1.00
2019-05-23T12:20:27.696Z,0.82
2019-05-23T12:25:34.587Z,1.07
2019-05-23T12:30:40.069Z,0.75
2019-05-23T12:35:45.663Z,0.70
2019-05-23T12:40:51.655Z,0.82
2019-05-23T12:45:57.198Z,0.80
2019-05-23T12:51:03.927Z,0.90
2019-05-23T12:56:09.829Z,0.90
2019-05-23T13:01:16.980Z,0.90
2019-05-23T13:06:22.723Z,1.25
2019-05-23T13:11:28.938Z,0.85
2019-05-23T13:16:34.655Z,0.80
2019-05-23T13:21:40.342Z,0.90
2019-05-23T13:26:45.814Z,0.70
2019-05-23T13:31:51.354Z,1.00
2019-05-23T13:36:57.293Z,1.00
2019-05-23T13:42:03.417Z,1.00
2019-05-23T13:47:09.000Z,1.10
2019-05-23T13:52:14.715Z,0.98
2019-05-23T13:57:20.367Z,1.00
2019-05-23T14:02:25.844Z,1.70
2019-05-23T14:07:33.288Z,0.98
2019-05-23T14:12:39.259Z,0.80
2019-05-23T14:17:45.006Z,0.90
2019-05-23T14:22:58.413Z,1.10
2019-05-23T14:28:06.679Z,0.88
2019-05-23T14:33:23.586Z,0.82
2019-05-23T14:38:31.901Z,1.07
2019-05-23T14:43:37.678Z,1.17
2019-05-23T14:48:55.227Z,1.17
2019-05-23T14:54:06.485Z,0.93
2019-05-23T14:59:11.991Z,1.02
2019-05-23T15:04:17.793Z,1.20
2019-05-23T15:09:23.794Z,1.00
2019-05-23T15:14:29.341Z,1.17
2019-05-23T15:19:44.275Z,1.10
2019-05-23T15:24:42.303Z,1.00
2019-05-23T15:29:47.816Z,1.32
2019-05-23T15:34:53.365Z,1.10
2019-05-23T15:39:59.088Z,1.30
2019-05-23T15:45:05.476Z,1.10
2019-05-23T15:50:13.606Z,1.05
2019-05-23T15:55:29.332Z,1.52
2019-05-23T16:01:02.944Z,1.50
2019-05-23T16:06:11.526Z,1.25
2019-05-23T16:11:18.186Z,1.20
2019-05-23T16:16:24.198Z,1.17
2019-05-23T16:21:30.755Z,1.40
2019-05-23T16:26:36.581Z,1.50
2019-05-23T16:31:42.917Z,1.50
2019-05-23T16:36:48.543Z,1.57
2019-05-23T16:41:54.319Z,1.20
2019-05-23T16:47:00.027Z,1.10
2019-05-23T16:52:05.755Z,1.22
2019-05-23T16:57:30.084Z,0.80
2019-05-23T17:02:45.524Z,1.00
2019-05-23T17:08:15.207Z,1.15
2019-05-23T17:13:48.857Z,0.85
2019-05-23T17:19:02.870Z,1.00
2019-05-23T17:24:28.574Z,1.10
2019-05-23T17:29:46.668Z,1.20
2019-05-23T17:34:52.502Z,1.27
2019-05-23T17:39:59.656Z,1.00
2019-05-23T17:45:05.707Z,1.00
2019-05-23T17:50:12.451Z,1.32
2019-05-23T17:55:18.033Z,1.30
2019-05-23T18:00:27.204Z,1.92
2019-05-23T18:05:33.607Z,1.20
2019-05-23T18:10:45.291Z,1.20
2019-05-23T18:15:47.270Z,1.17
2019-05-23T18:20:53.045Z,1.30
2019-05-23T18:25:58.624Z,1.22
2019-05-23T18:31:15.182Z,1.25
2019-05-23T18:36:22.425Z,1.30
2019-05-23T18:41:28.980Z,1.45
2019-05-23T18:46:39.500Z,1.62
2019-05-23T18:51:45.340Z,1.62
2019-05-23T18:56:50.865Z,1.30
2019-05-23T19:01:56.763Z,1.42
2019-05-23T19:07:02.992Z,1.10
2019-05-23T19:12:09.937Z,1.20
2019-05-23T19:17:15.341Z,1.37
2019-05-23T19:22:22.380Z,1.22
2019-05-23T19:27:28.051Z,0.80
2019-05-23T19:32:33.899Z,1.10
2019-05-23T19:37:39.717Z,1.00
2019-05-23T19:42:45.306Z,0.90
2019-05-23T19:47:50.835Z,0.85
2019-05-23T19:52:56.414Z,1.10
2019-05-23T19:58:02.158Z,1.35
2019-05-23T20:03:09.643Z,0.90
2019-05-23T20:08:15.653Z,0.80
2019-05-23T20:13:22.442Z,0.90
2019-05-23T20:18:28.718Z,1.10
2019-05-23T20:23:35.735Z,1.02
2019-05-23T20:28:42.224Z,1.10
2019-05-23T20:33:48.445Z,1.10
2019-05-23T20:38:54.289Z,1.20
2019-05-23T20:44:00.009Z,1.17
2019-05-23T20:49:07.274Z,1.50
2019-05-23T20:54:13.928Z,1.15
2019-05-23T20:59:19.719Z,1.27
2019-05-23T21:04:25.738Z,1.17
2019-05-23T21:09:31.785Z,1.27
2019-05-23T21:14:37.671Z,1.12
2019-05-23T21:19:43.350Z,1.12
2019-05-23T21:24:50.350Z,1.32
2019-05-23T21:29:56.202Z,1.50
2019-05-23T21:35:02.182Z,1.42
2019-05-23T21:40:10.732Z,1.60
2019-05-23T21:45:16.822Z,1.40
2019-05-23T21:50:23.003Z,1.10
2019-05-23T21:55:38.886Z,1.37
2019-05-23T22:01:23.673Z,1.70
2019-05-23T22:06:31.446Z,1.25
2019-05-23T22:11:37.369Z,1.30
2019-05-23T22:16:43.124Z,1.37
2019-05-23T22:21:49.268Z,1.62
2019-05-23T22:26:55.211Z,1.20
2019-05-23T22:32:01.180Z,1.20
2019-05-23T22:37:20.165Z,1.20
2019-05-23T22:42:27.303Z,1.95
2019-05-23T22:47:34.636Z,1.20
2019-05-23T22:52:40.231Z,1.27
2019-05-23T22:57:48.226Z,1.30
2019-05-23T23:02:54.971Z,1.20
2019-05-23T23:08:01.182Z,1.17
2019-05-23T23:13:07.824Z,1.20
2019-05-23T23:18:15.047Z,1.47
2019-05-23T23:23:21.038Z,1.47
2019-05-23T23:28:27.013Z,1.10
2019-05-23T23:33:32.539Z,1.30
2019-05-23T23:38:38.338Z,1.95
2019-05-23T23:43:57.919Z,1.40
2019-05-23T23:49:09.141Z,1.60
2019-05-23T23:54:32.761Z,1.50
2019-05-23T23:59:37.373Z,1.20
